sensor_id;sensor_type;location;lat;lon;timestamp;pressure;altitude;pressure_sealevel;temperature;humidity
35918;BME280;22011;59.912;30.300;2023-04-21T00:01:51;102095.13;;;7.68;62.77
35918;BME280;22011;59.912;30.300;2023-04-21T00:04:20;102087.88;;;7.70;62.27
35918;BME280;22011;59.912;30.300;2023-04-21T00:06:47;102085.97;;;7.72;62.31
35918;BME280;22011;59.912;30.300;2023-04-21T00:09:15;102081.72;;;7.69;62.53
35918;BME280;22011;59.912;30.300;2023-04-21T00:11:43;102085.56;;;7.65;62.78
35918;BME280;22011;59.912;30.300;2023-04-21T00:14:11;102085.41;;;7.55;62.75
35918;BME280;22011;59.912;30.300;2023-04-21T00:16:39;102085.19;;;7.59;63.21
35918;BME280;22011;59.912;30.300;2023-04-21T00:19:07;102083.50;;;7.58;63.10
35918;BME280;22011;59.912;30.300;2023-04-21T00:21:35;102080.94;;;7.56;62.95
35918;BME280;22011;59.912;30.300;2023-04-21T00:24:02;102085.41;;;7.55;63.41
35918;BME280;22011;59.912;30.300;2023-04-21T00:26:30;102077.78;;;7.51;63.76
35918;BME280;22011;59.912;30.300;2023-04-21T00:28:58;102083.44;;;7.46;63.71
35918;BME280;22011;59.912;30.300;2023-04-21T00:31:25;102078.47;;;7.42;64.17
35918;BME280;22011;59.912;30.300;2023-04-21T00:33:54;102073.06;;;7.43;65.08
35918;BME280;22011;59.912;30.300;2023-04-21T00:36:22;102071.34;;;7.42;64.45
35918;BME280;22011;59.912;30.300;2023-04-21T00:38:53;102066.91;;;7.43;64.57
35918;BME280;22011;59.912;30.300;2023-04-21T00:41:20;102071.47;;;7.41;64.54
35918;BME280;22011;59.912;30.300;2023-04-21T00:44:09;102063.84;;;7.60;65.51
35918;BME280;22011;59.912;30.300;2023-04-21T00:46:37;102062.91;;;7.37;65.16
35918;BME280;22011;59.912;30.300;2023-04-21T00:49:06;102057.59;;;7.37;65.80
35918;BME280;22011;59.912;30.300;2023-04-21T00:51:34;102063.84;;;7.36;66.18
35918;BME280;22011;59.912;30.300;2023-04-21T00:54:03;102064.47;;;7.40;65.96
35918;BME280;22011;59.912;30.300;2023-04-21T00:56:33;102051.34;;;7.38;66.12
35918;BME280;22011;59.912;30.300;2023-04-21T00:59:02;102054.22;;;7.35;66.26
35918;BME280;22011;59.912;30.300;2023-04-21T01:01:30;102058.03;;;7.31;66.20
35918;BME280;22011;59.912;30.300;2023-04-21T01:03:59;102058.41;;;7.27;66.68
35918;BME280;22011;59.912;30.300;2023-04-21T01:06:31;102055.63;;;7.28;66.98
35918;BME280;22011;59.912;30.300;2023-04-21T01:08:59;102060.31;;;7.25;66.31
35918;BME280;22011;59.912;30.300;2023-04-21T01:11:27;102052.25;;;7.26;66.32
35918;BME280;22011;59.912;30.300;2023-04-21T01:13:55;102055.97;;;7.24;65.94
35918;BME280;22011;59.912;30.300;2023-04-21T01:16:23;102055.34;;;7.20;66.04
35918;BME280;22011;59.912;30.300;2023-04-21T01:18:53;102048.25;;;7.20;65.90
35918;BME280;22011;59.912;30.300;2023-04-21T01:21:21;102055.88;;;7.25;66.41
35918;BME280;22011;59.912;30.300;2023-04-21T01:23:50;102054.06;;;7.26;65.82
35918;BME280;22011;59.912;30.300;2023-04-21T01:26:18;102054.41;;;7.21;65.98
35918;BME280;22011;59.912;30.300;2023-04-21T01:28:46;102045.16;;;7.27;66.20
35918;BME280;22011;59.912;30.300;2023-04-21T01:31:15;102051.53;;;7.24;65.67
35918;BME280;22011;59.912;30.300;2023-04-21T01:33:43;102050.47;;;7.27;66.44
35918;BME280;22011;59.912;30.300;2023-04-21T01:36:11;102048.03;;;7.24;65.91
35918;BME280;22011;59.912;30.300;2023-04-21T01:38:39;102046.00;;;7.27;65.88
35918;BME280;22011;59.912;30.300;2023-04-21T01:41:08;102051.16;;;7.29;66.39
35918;BME280;22011;59.912;30.300;2023-04-21T01:43:36;102039.47;;;7.20;66.07
35918;BME280;22011;59.912;30.300;2023-04-21T01:46:05;102042.09;;;7.20;66.49
35918;BME280;22011;59.912;30.300;2023-04-21T01:48:32;102041.88;;;7.23;66.31
35918;BME280;22011;59.912;30.300;2023-04-21T01:51:00;102039.00;;;7.26;66.41
35918;BME280;22011;59.912;30.300;2023-04-21T01:53:28;102039.47;;;7.20;66.42
35918;BME280;22011;59.912;30.300;2023-04-21T01:55:55;102033.31;;;7.19;67.27
35918;BME280;22011;59.912;30.300;2023-04-21T01:58:24;102028.75;;;7.21;67.08
35918;BME280;22011;59.912;30.300;2023-04-21T02:00:51;102037.66;;;7.20;66.86
35918;BME280;22011;59.912;30.300;2023-04-21T02:03:21;102033.09;;;7.22;66.68
35918;BME280;22011;59.912;30.300;2023-04-21T02:05:49;102044.41;;;7.25;66.85
35918;BME280;22011;59.912;30.300;2023-04-21T02:08:17;102038.72;;;7.18;66.53
35918;BME280;22011;59.912;30.300;2023-04-21T02:10:45;102047.84;;;7.14;66.65
35918;BME280;22011;59.912;30.300;2023-04-21T02:13:12;102046.28;;;7.11;67.12
35918;BME280;22011;59.912;30.300;2023-04-21T02:15:42;102047.63;;;7.17;67.30
35918;BME280;22011;59.912;30.300;2023-04-21T02:18:09;102041.09;;;7.10;66.81
35918;BME280;22011;59.912;30.300;2023-04-21T02:20:37;102044.19;;;7.04;67.10
35918;BME280;22011;59.912;30.300;2023-04-21T02:23:06;102039.09;;;7.01;67.38
35918;BME280;22011;59.912;30.300;2023-04-21T02:25:33;102037.41;;;7.00;66.82
35918;BME280;22011;59.912;30.300;2023-04-21T02:28:01;102040.28;;;6.97;67.04
35918;BME280;22011;59.912;30.300;2023-04-21T02:30:28;102031.16;;;7.01;66.87
35918;BME280;22011;59.912;30.300;2023-04-21T02:32:57;102040.47;;;7.06;67.27
35918;BME280;22011;59.912;30.300;2023-04-21T02:35:24;102037.91;;;7.05;67.35
35918;BME280;22011;59.912;30.300;2023-04-21T02:37:52;102025.41;;;7.07;67.44
35918;BME280;22011;59.912;30.300;2023-04-21T02:40:22;102020.50;;;7.13;67.51
35918;BME280;22011;59.912;30.300;2023-04-21T02:42:51;102018.47;;;7.17;66.74
35918;BME280;22011;59.912;30.300;2023-04-21T02:45:19;102023.22;;;7.25;66.53
35918;BME280;22011;59.912;30.300;2023-04-21T02:47:46;102014.19;;;7.27;66.12
35918;BME280;22011;59.912;30.300;2023-04-21T02:50:15;102019.13;;;7.32;66.74
35918;BME280;22011;59.912;30.300;2023-04-21T02:52:42;102013.47;;;7.25;66.74
35918;BME280;22011;59.912;30.300;2023-04-21T02:55:10;102008.16;;;7.25;66.87
35918;BME280;22011;59.912;30.300;2023-04-21T02:57:37;102001.06;;;7.26;66.50
35918;BME280;22011;59.912;30.300;2023-04-21T03:00:07;102010.69;;;7.27;66.77
35918;BME280;22011;59.912;30.300;2023-04-21T03:02:37;102004.53;;;7.26;66.68
35918;BME280;22011;59.912;30.300;2023-04-21T03:05:04;102013.94;;;7.30;66.53
35918;BME280;22011;59.912;30.300;2023-04-21T03:07:33;102013.38;;;7.38;67.08
35918;BME280;22011;59.912;30.300;2023-04-21T03:10:04;102008.91;;;7.38;66.56
35918;BME280;22011;59.912;30.300;2023-04-21T03:12:32;102008.06;;;7.38;67.15
35918;BME280;22011;59.912;30.300;2023-04-21T03:14:59;102004.91;;;7.33;67.27
35918;BME280;22011;59.912;30.300;2023-04-21T03:17:27;102000.69;;;7.30;66.88
35918;BME280;22011;59.912;30.300;2023-04-21T03:19:54;102013.25;;;7.39;66.90
35918;BME280;22011;59.912;30.300;2023-04-21T03:22:22;102006.25;;;7.38;67.18
35918;BME280;22011;59.912;30.300;2023-04-21T03:24:50;102013.03;;;7.42;66.97
35918;BME280;22011;59.912;30.300;2023-04-21T03:27:18;102007.00;;;7.40;67.02
35918;BME280;22011;59.912;30.300;2023-04-21T03:29:45;102004.69;;;7.36;67.48
35918;BME280;22011;59.912;30.300;2023-04-21T03:32:13;102006.72;;;7.32;67.62
35918;BME280;22011;59.912;30.300;2023-04-21T03:34:40;102013.81;;;7.32;67.27
35918;BME280;22011;59.912;30.300;2023-04-21T03:37:08;102010.06;;;7.23;67.40
35918;BME280;22011;59.912;30.300;2023-04-21T03:39:36;102010.06;;;7.23;67.43
35918;BME280;22011;59.912;30.300;2023-04-21T03:42:05;102021.13;;;7.17;67.68
35918;BME280;22011;59.912;30.300;2023-04-21T03:44:33;102018.53;;;7.04;67.62
35918;BME280;22011;59.912;30.300;2023-04-21T03:47:01;102009.00;;;7.02;68.42
35918;BME280;22011;59.912;30.300;2023-04-21T03:49:29;102010.78;;;7.01;68.60
35918;BME280;22011;59.912;30.300;2023-04-21T03:51:57;102015.75;;;7.06;68.64
35918;BME280;22011;59.912;30.300;2023-04-21T03:54:24;102008.53;;;7.08;68.52
35918;BME280;22011;59.912;30.300;2023-04-21T03:56:52;102016.59;;;7.06;68.47
35918;BME280;22011;59.912;30.300;2023-04-21T03:59:21;102012.78;;;7.10;68.65
35918;BME280;22011;59.912;30.300;2023-04-21T04:01:48;102012.88;;;7.09;68.46
35918;BME280;22011;59.912;30.300;2023-04-21T04:04:15;102008.31;;;7.11;67.98
35918;BME280;22011;59.912;30.300;2023-04-21T04:06:43;102015.16;;;7.26;67.45
35918;BME280;22011;59.912;30.300;2023-04-21T04:09:10;102009.38;;;7.32;67.48
35918;BME280;22011;59.912;30.300;2023-04-21T04:11:38;102008.91;;;7.38;66.85
35918;BME280;22011;59.912;30.300;2023-04-21T04:14:05;102008.44;;;7.44;66.85
35918;BME280;22011;59.912;30.300;2023-04-21T04:16:34;102015.69;;;7.42;67.17
35918;BME280;22011;59.912;30.300;2023-04-21T04:19:02;102005.75;;;7.33;66.90
35918;BME280;22011;59.912;30.300;2023-04-21T04:21:29;102000.69;;;7.30;67.19
35918;BME280;22011;59.912;30.300;2023-04-21T04:23:57;102006.72;;;7.32;67.03
35918;BME280;22011;59.912;30.300;2023-04-21T04:26:25;102000.94;;;7.38;67.01
35918;BME280;22011;59.912;30.300;2023-04-21T04:28:52;102002.75;;;7.38;66.86
35918;BME280;22011;59.912;30.300;2023-04-21T04:31:21;101998.06;;;7.41;66.42
35918;BME280;22011;59.912;30.300;2023-04-21T04:33:51;101997.63;;;7.47;66.77
35918;BME280;22011;59.912;30.300;2023-04-21T04:36:19;101991.81;;;7.42;66.46
35918;BME280;22011;59.912;30.300;2023-04-21T04:38:46;101991.47;;;7.47;67.12
35918;BME280;22011;59.912;30.300;2023-04-21T04:41:14;101986.16;;;7.47;66.37
35918;BME280;22011;59.912;30.300;2023-04-21T04:43:41;101992.47;;;7.57;66.59
35918;BME280;22011;59.912;30.300;2023-04-21T04:46:09;101993.53;;;7.54;66.57
35918;BME280;22011;59.912;30.300;2023-04-21T04:48:37;101990.66;;;7.58;66.59
35918;BME280;22011;59.912;30.300;2023-04-21T04:51:06;101988.28;;;7.66;66.59
35918;BME280;22011;59.912;30.300;2023-04-21T04:53:33;101982.00;;;7.67;66.34
35918;BME280;22011;59.912;30.300;2023-04-21T04:56:01;101974.53;;;7.72;66.22
35918;BME280;22011;59.912;30.300;2023-04-21T04:58:28;101963.47;;;7.78;66.27
35918;BME280;22011;59.912;30.300;2023-04-21T05:00:56;101968.31;;;7.84;66.39
35918;BME280;22011;59.912;30.300;2023-04-21T05:03:23;101968.44;;;7.94;65.62
35918;BME280;22011;59.912;30.300;2023-04-21T05:05:51;101968.69;;;8.02;65.08
35918;BME280;22011;59.912;30.300;2023-04-21T05:08:20;101965.19;;;8.12;65.10
35918;BME280;22011;59.912;30.300;2023-04-21T05:10:48;101964.47;;;8.22;64.53
35918;BME280;22011;59.912;30.300;2023-04-21T05:13:16;101966.88;;;8.25;64.63
35918;BME280;22011;59.912;30.300;2023-04-21T05:15:43;101970.88;;;8.30;64.64
35918;BME280;22011;59.912;30.300;2023-04-21T05:18:10;101982.19;;;8.32;64.35
35918;BME280;22011;59.912;30.300;2023-04-21T05:20:40;101974.22;;;8.32;64.15
35918;BME280;22011;59.912;30.300;2023-04-21T05:23:07;101973.66;;;8.29;64.20
35918;BME280;22011;59.912;30.300;2023-04-21T05:25:36;101972.44;;;8.33;64.78
35918;BME280;22011;59.912;30.300;2023-04-21T05:28:04;101974.84;;;8.36;64.28
35918;BME280;22011;59.912;30.300;2023-04-21T05:30:31;101967.59;;;8.49;63.93
35918;BME280;22011;59.912;30.300;2023-04-21T05:32:59;101972.41;;;8.66;63.50
35918;BME280;22011;59.912;30.300;2023-04-21T05:35:29;101971.19;;;8.81;62.95
35918;BME280;22011;59.912;30.300;2023-04-21T05:37:56;101966.84;;;8.80;62.42
35918;BME280;22011;59.912;30.300;2023-04-21T05:40:24;101968.75;;;8.90;62.64
35918;BME280;22011;59.912;30.300;2023-04-21T05:42:53;101969.47;;;8.92;62.72
35918;BME280;22011;59.912;30.300;2023-04-21T05:45:20;101962.22;;;8.94;62.84
35918;BME280;22011;59.912;30.300;2023-04-21T05:47:47;101956.66;;;8.97;62.27
35918;BME280;22011;59.912;30.300;2023-04-21T05:50:15;101952.78;;;9.01;62.04
35918;BME280;22011;59.912;30.300;2023-04-21T05:52:42;101954.84;;;8.97;62.09
35918;BME280;22011;59.912;30.300;2023-04-21T05:55:10;101955.69;;;8.98;61.94
35918;BME280;22011;59.912;30.300;2023-04-21T05:57:37;101954.47;;;9.02;61.86
35918;BME280;22011;59.912;30.300;2023-04-21T06:00:08;101955.75;;;9.07;62.04
35918;BME280;22011;59.912;30.300;2023-04-21T06:02:35;101952.00;;;9.10;61.61
35918;BME280;22011;59.912;30.300;2023-04-21T06:05:03;101951.63;;;9.14;61.25
35918;BME280;22011;59.912;30.300;2023-04-21T06:07:31;101955.84;;;9.17;61.24
35918;BME280;22011;59.912;30.300;2023-04-21T06:09:58;101950.66;;;9.36;60.70
35918;BME280;22011;59.912;30.300;2023-04-21T06:12:25;101955.34;;;9.44;60.42
35918;BME280;22011;59.912;30.300;2023-04-21T06:14:53;101952.81;;;9.42;60.25
35918;BME280;22011;59.912;30.300;2023-04-21T06:17:24;101948.19;;;9.44;60.34
35918;BME280;22011;59.912;30.300;2023-04-21T06:19:51;101959.66;;;9.35;60.50
35918;BME280;22011;59.912;30.300;2023-04-21T06:22:19;101963.53;;;9.31;60.91
35918;BME280;22011;59.912;30.300;2023-04-21T06:24:46;101966.91;;;9.33;60.88
35918;BME280;22011;59.912;30.300;2023-04-21T06:27:14;101962.00;;;9.38;60.78
35918;BME280;22011;59.912;30.300;2023-04-21T06:29:42;101964.50;;;9.51;60.39
35918;BME280;22011;59.912;30.300;2023-04-21T06:32:10;101961.19;;;9.59;60.61
35918;BME280;22011;59.912;30.300;2023-04-21T06:34:39;101960.09;;;9.61;60.32
35918;BME280;22011;59.912;30.300;2023-04-21T06:37:06;101957.81;;;9.57;60.00
35918;BME280;22011;59.912;30.300;2023-04-21T06:39:34;101947.63;;;9.62;59.64
35918;BME280;22011;59.912;30.300;2023-04-21T06:42:01;101956.31;;;9.64;59.26
35918;BME280;22011;59.912;30.300;2023-04-21T06:44:29;101957.03;;;9.66;59.61
35918;BME280;22011;59.912;30.300;2023-04-21T06:46:57;101957.56;;;9.60;59.63
35918;BME280;22011;59.912;30.300;2023-04-21T06:49:24;101955.09;;;9.68;60.22
35918;BME280;22011;59.912;30.300;2023-04-21T06:51:53;101952.88;;;9.73;59.89
35918;BME280;22011;59.912;30.300;2023-04-21T06:54:21;101943.91;;;9.74;59.97
35918;BME280;22011;59.912;30.300;2023-04-21T06:56:48;101941.44;;;9.82;59.37
35918;BME280;22011;59.912;30.300;2023-04-21T06:59:16;101944.34;;;10.00;58.88
35918;BME280;22011;59.912;30.300;2023-04-21T07:01:43;101936.84;;;10.14;58.24
35918;BME280;22011;59.912;30.300;2023-04-21T07:04:13;101936.59;;;10.67;58.74
35918;BME280;22011;59.912;30.300;2023-04-21T07:06:41;101932.91;;;10.39;56.89
35918;BME280;22011;59.912;30.300;2023-04-21T07:09:09;101930.50;;;10.46;56.94
35918;BME280;22011;59.912;30.300;2023-04-21T07:11:37;101934.16;;;10.45;56.89
35918;BME280;22011;59.912;30.300;2023-04-21T07:14:04;101925.19;;;10.46;57.14
35918;BME280;22011;59.912;30.300;2023-04-21T07:16:32;101923.94;;;10.50;57.10
35918;BME280;22011;59.912;30.300;2023-04-21T07:18:59;101929.69;;;10.55;57.11
35918;BME280;22011;59.912;30.300;2023-04-21T07:21:27;101927.19;;;10.63;57.08
35918;BME280;22011;59.912;30.300;2023-04-21T07:23:57;101930.44;;;10.76;56.74
35918;BME280;22011;59.912;30.300;2023-04-21T07:26:25;101925.13;;;10.86;56.75
35918;BME280;22011;59.912;30.300;2023-04-21T07:28:53;101925.69;;;10.90;56.17
35918;BME280;22011;59.912;30.300;2023-04-21T07:31:23;101926.53;;;11.00;55.67
35918;BME280;22011;59.912;30.300;2023-04-21T07:33:50;101924.59;;;11.02;55.87
35918;BME280;22011;59.912;30.300;2023-04-21T07:36:18;101918.81;;;11.06;56.86
35918;BME280;22011;59.912;30.300;2023-04-21T07:38:45;101913.06;;;11.11;55.99
35918;BME280;22011;59.912;30.300;2023-04-21T07:41:13;101921.22;;;11.19;55.49
35918;BME280;22011;59.912;30.300;2023-04-21T07:43:42;101919.94;;;11.33;55.49
35918;BME280;22011;59.912;30.300;2023-04-21T07:46:09;101913.19;;;11.38;54.72
35918;BME280;22011;59.912;30.300;2023-04-21T07:48:38;101913.44;;;11.45;54.67
35918;BME280;22011;59.912;30.300;2023-04-21T07:51:06;101903.03;;;11.52;55.01
35918;BME280;22011;59.912;30.300;2023-04-21T07:53:33;101906.81;;;11.59;54.16
35918;BME280;22011;59.912;30.300;2023-04-21T07:56:01;101902.56;;;11.75;54.23
35918;BME280;22011;59.912;30.300;2023-04-21T07:58:28;101900.88;;;11.84;53.65
35918;BME280;22011;59.912;30.300;2023-04-21T08:00:57;101895.06;;;11.98;53.83
35918;BME280;22011;59.912;30.300;2023-04-21T08:03:24;101896.34;;;11.94;53.09
35918;BME280;22011;59.912;30.300;2023-04-21T08:05:52;101894.13;;;11.90;53.40
35918;BME280;22011;59.912;30.300;2023-04-21T08:08:19;101883.69;;;11.96;53.50
35918;BME280;22011;59.912;30.300;2023-04-21T08:10:47;101885.06;;;12.00;52.95
35918;BME280;22011;59.912;30.300;2023-04-21T08:13:14;101889.25;;;12.13;52.25
35918;BME280;22011;59.912;30.300;2023-04-21T08:15:41;101886.41;;;12.14;51.91
35918;BME280;22011;59.912;30.300;2023-04-21T08:18:10;101883.69;;;12.24;52.40
35918;BME280;22011;59.912;30.300;2023-04-21T08:20:37;101887.91;;;12.26;51.67
35918;BME280;22011;59.912;30.300;2023-04-21T08:23:05;101882.47;;;12.18;52.22
35918;BME280;22011;59.912;30.300;2023-04-21T08:25:32;101877.66;;;12.22;53.13
35918;BME280;22011;59.912;30.300;2023-04-21T08:28:00;101880.09;;;12.42;51.67
35918;BME280;22011;59.912;30.300;2023-04-21T08:30:27;101884.66;;;12.50;51.59
35918;BME280;22011;59.912;30.300;2023-04-21T08:32:55;101884.34;;;12.53;51.64
35918;BME280;22011;59.912;30.300;2023-04-21T08:35:24;101873.06;;;12.59;51.76
35918;BME280;22011;59.912;30.300;2023-04-21T08:37:51;101876.16;;;12.55;51.02
35918;BME280;22011;59.912;30.300;2023-04-21T08:40:19;101869.78;;;12.65;50.70
35918;BME280;22011;59.912;30.300;2023-04-21T08:42:47;101865.28;;;12.84;50.51
35918;BME280;22011;59.912;30.300;2023-04-21T08:45:14;101866.34;;;12.91;50.46
35918;BME280;22011;59.912;30.300;2023-04-21T08:47:42;101863.06;;;12.97;50.55
35918;BME280;22011;59.912;30.300;2023-04-21T08:50:12;101865.28;;;13.19;49.77
35918;BME280;22011;59.912;30.300;2023-04-21T08:52:41;101865.97;;;13.21;50.09
35918;BME280;22011;59.912;30.300;2023-04-21T08:55:10;101866.88;;;13.30;49.19
35918;BME280;22011;59.912;30.300;2023-04-21T08:57:39;101854.94;;;13.24;49.16
35918;BME280;22011;59.912;30.300;2023-04-21T09:00:07;101859.91;;;13.19;49.31
35918;BME280;22011;59.912;30.300;2023-04-21T09:02:51;101844.72;;;13.46;50.23
35918;BME280;22011;59.912;30.300;2023-04-21T09:05:21;101848.97;;;13.30;49.48
35918;BME280;22011;59.912;30.300;2023-04-21T09:07:50;101844.97;;;13.34;48.89
35918;BME280;22011;59.912;30.300;2023-04-21T09:10:21;101845.03;;;13.43;49.87
35918;BME280;22011;59.912;30.300;2023-04-21T09:12:50;101845.34;;;13.39;49.03
35918;BME280;22011;59.912;30.300;2023-04-21T09:15:19;101841.88;;;13.47;48.87
35918;BME280;22011;59.912;30.300;2023-04-21T09:17:53;101842.06;;;13.54;49.31
35918;BME280;22011;59.912;30.300;2023-04-21T09:20:22;101839.00;;;13.40;48.29
35918;BME280;22011;59.912;30.300;2023-04-21T09:22:51;101843.03;;;13.45;49.17
35918;BME280;22011;59.912;30.300;2023-04-21T09:25:19;101836.53;;;13.47;48.63
35918;BME280;22011;59.912;30.300;2023-04-21T09:27:46;101835.38;;;13.50;48.02
35918;BME280;22011;59.912;30.300;2023-04-21T09:30:17;101832.56;;;13.59;48.53
35918;BME280;22011;59.912;30.300;2023-04-21T09:32:45;101830.72;;;13.60;47.35
35918;BME280;22011;59.912;30.300;2023-04-21T09:35:12;101830.34;;;13.55;47.15
35918;BME280;22011;59.912;30.300;2023-04-21T09:37:42;101827.38;;;13.58;48.32
35918;BME280;22011;59.912;30.300;2023-04-21T09:40:13;101825.41;;;13.68;47.67
35918;BME280;22011;59.912;30.300;2023-04-21T09:42:41;101823.88;;;13.65;47.49
35918;BME280;22011;59.912;30.300;2023-04-21T09:45:09;101829.75;;;13.69;47.11
35918;BME280;22011;59.912;30.300;2023-04-21T09:47:39;101819.75;;;13.71;48.62
35918;BME280;22011;59.912;30.300;2023-04-21T09:50:10;101823.69;;;13.59;47.98
35918;BME280;22011;59.912;30.300;2023-04-21T09:52:37;101818.53;;;13.99;48.37
35918;BME280;22011;59.912;30.300;2023-04-21T09:55:10;101816.34;;;13.61;48.60
35918;BME280;22011;59.912;30.300;2023-04-21T09:57:41;101815.28;;;13.54;48.73
35918;BME280;22011;59.912;30.300;2023-04-21T10:00:10;101819.09;;;13.43;48.86
35918;BME280;22011;59.912;30.300;2023-04-21T10:02:42;101818.81;;;13.54;48.65
35918;BME280;22011;59.912;30.300;2023-04-21T10:05:10;101816.47;;;13.51;48.24
35918;BME280;22011;59.912;30.300;2023-04-21T10:07:38;101795.91;;;13.52;48.03
35918;BME280;22011;59.912;30.300;2023-04-21T10:10:08;101802.09;;;13.60;47.98
35918;BME280;22011;59.912;30.300;2023-04-21T10:12:40;101805.63;;;13.61;48.41
35918;BME280;22011;59.912;30.300;2023-04-21T10:15:28;101795.69;;;13.87;48.82
35918;BME280;22011;59.912;30.300;2023-04-21T10:18:10;101797.03;;;13.83;48.50
35918;BME280;22011;59.912;30.300;2023-04-21T10:20:50;101805.38;;;13.80;48.35
35918;BME280;22011;59.912;30.300;2023-04-21T10:23:28;101785.13;;;13.78;48.15
35918;BME280;22011;59.912;30.300;2023-04-21T10:26:08;101785.63;;;13.81;47.71
35918;BME280;22011;59.912;30.300;2023-04-21T10:28:45;101788.84;;;13.93;47.87
35918;BME280;22011;59.912;30.300;2023-04-21T10:31:31;101779.88;;;14.10;48.19
35918;BME280;22011;59.912;30.300;2023-04-21T10:34:16;101775.34;;;14.11;47.45
35918;BME280;22011;59.912;30.300;2023-04-21T10:37:09;101778.56;;;14.22;46.86
35918;BME280;22011;59.912;30.300;2023-04-21T10:39:51;101771.69;;;14.20;47.08
35918;BME280;22011;59.912;30.300;2023-04-21T10:42:24;101775.69;;;14.16;46.48
35918;BME280;22011;59.912;30.300;2023-04-21T10:45:00;101776.22;;;14.27;46.35
35918;BME280;22011;59.912;30.300;2023-04-21T10:47:34;101774.50;;;14.10;45.23
35918;BME280;22011;59.912;30.300;2023-04-21T10:50:14;101767.69;;;14.32;45.89
35918;BME280;22011;59.912;30.300;2023-04-21T10:52:46;101767.97;;;14.13;45.51
35918;BME280;22011;59.912;30.300;2023-04-21T10:55:17;101758.91;;;14.05;45.60
35918;BME280;22011;59.912;30.300;2023-04-21T10:57:45;101762.94;;;14.01;45.43
35918;BME280;22011;59.912;30.300;2023-04-21T11:00:20;101761.81;;;14.28;45.36
35918;BME280;22011;59.912;30.300;2023-04-21T11:02:59;101761.50;;;14.31;45.43
35918;BME280;22011;59.912;30.300;2023-04-21T11:05:28;101755.59;;;14.12;45.40
35918;BME280;22011;59.912;30.300;2023-04-21T11:08:07;101751.78;;;14.30;46.04
35918;BME280;22011;59.912;30.300;2023-04-21T11:10:50;101751.09;;;14.28;45.60
35918;BME280;22011;59.912;30.300;2023-04-21T11:13:22;101754.25;;;14.16;46.46
35918;BME280;22011;59.912;30.300;2023-04-21T11:16:03;101751.25;;;14.27;46.05
35918;BME280;22011;59.912;30.300;2023-04-21T11:18:41;101750.25;;;14.28;45.90
35918;BME280;22011;59.912;30.300;2023-04-21T11:21:13;101749.72;;;14.08;45.88
35918;BME280;22011;59.912;30.300;2023-04-21T11:23:50;101750.88;;;14.05;46.16
35918;BME280;22011;59.912;30.300;2023-04-21T11:26:29;101739.53;;;14.28;45.73
35918;BME280;22011;59.912;30.300;2023-04-21T11:29:00;101737.00;;;14.18;45.70
35918;BME280;22011;59.912;30.300;2023-04-21T11:31:29;101742.38;;;14.26;45.90
35918;BME280;22011;59.912;30.300;2023-04-21T11:33:57;101733.19;;;14.37;45.17
35918;BME280;22011;59.912;30.300;2023-04-21T11:36:25;101727.66;;;14.30;45.16
35918;BME280;22011;59.912;30.300;2023-04-21T11:38:52;101724.13;;;14.38;44.91
35918;BME280;22011;59.912;30.300;2023-04-21T11:41:20;101718.47;;;14.49;45.06
35918;BME280;22011;59.912;30.300;2023-04-21T11:43:49;101720.31;;;14.49;46.00
35918;BME280;22011;59.912;30.300;2023-04-21T11:46:21;101719.44;;;14.56;44.77
35918;BME280;22011;59.912;30.300;2023-04-21T11:48:58;101714.75;;;14.83;45.01
35918;BME280;22011;59.912;30.300;2023-04-21T11:51:32;101710.38;;;14.82;45.09
35918;BME280;22011;59.912;30.300;2023-04-21T11:53:59;101718.78;;;14.62;44.74
35918;BME280;22011;59.912;30.300;2023-04-21T11:56:27;101704.53;;;14.62;44.89
35918;BME280;22011;59.912;30.300;2023-04-21T11:58:54;101708.72;;;14.64;44.87
35918;BME280;22011;59.912;30.300;2023-04-21T12:01:22;101712.41;;;14.71;44.59
35918;BME280;22011;59.912;30.300;2023-04-21T12:03:50;101709.72;;;14.71;44.89
35918;BME280;22011;59.912;30.300;2023-04-21T12:06:23;101711.03;;;14.84;45.51
35918;BME280;22011;59.912;30.300;2023-04-21T12:08:54;101711.06;;;14.76;44.51
35918;BME280;22011;59.912;30.300;2023-04-21T12:11:23;101705.00;;;14.82;44.38
35918;BME280;22011;59.912;30.300;2023-04-21T12:13:50;101706.03;;;14.81;44.26
35918;BME280;22011;59.912;30.300;2023-04-21T12:16:18;101703.34;;;14.81;44.91
35918;BME280;22011;59.912;30.300;2023-04-21T12:18:47;101710.38;;;14.82;44.67
35918;BME280;22011;59.912;30.300;2023-04-21T12:21:14;101704.84;;;14.75;44.60
35918;BME280;22011;59.912;30.300;2023-04-21T12:23:43;101706.34;;;14.86;44.68
35918;BME280;22011;59.912;30.300;2023-04-21T12:26:11;101702.97;;;14.92;44.69
35918;BME280;22011;59.912;30.300;2023-04-21T12:28:38;101700.31;;;14.92;44.25
35918;BME280;22011;59.912;30.300;2023-04-21T12:31:06;101696.78;;;14.91;43.97
35918;BME280;22011;59.912;30.300;2023-04-21T12:33:33;101695.28;;;14.89;44.44
35918;BME280;22011;59.912;30.300;2023-04-21T12:36:01;101697.28;;;14.95;44.08
35918;BME280;22011;59.912;30.300;2023-04-21T12:38:28;101692.25;;;15.00;44.13
35918;BME280;22011;59.912;30.300;2023-04-21T12:40:57;101691.38;;;15.08;43.94
35918;BME280;22011;59.912;30.300;2023-04-21T12:43:25;101690.38;;;15.00;43.99
35918;BME280;22011;59.912;30.300;2023-04-21T12:45:52;101688.25;;;14.88;44.15
35918;BME280;22011;59.912;30.300;2023-04-21T12:48:20;101684.53;;;14.89;44.21
35918;BME280;22011;59.912;30.300;2023-04-21T12:50:47;101682.19;;;14.94;44.22
35918;BME280;22011;59.912;30.300;2023-04-21T12:53:14;101686.88;;;14.92;44.28
35918;BME280;22011;59.912;30.300;2023-04-21T12:55:42;101683.84;;;14.95;44.26